Time;durP1;ratioP1;P1;durP2;ratioP2;P2;SDS_P1;SDS_P2;PMS_P1;PMS_P2;Temp;Humidity;BMP_temperature;BMP_pressure;BME280_temperature;BME280_humidity;BME280_pressure;Samples;Min_cycle;Max_cycle;Signal;HPM_P1;HPM_P2
2021/07/29 00:00:25;;;;;;;6.40;5.80;;;16.60;94.70;;;15.81;83.30;97806.41;4968294;28;20457;-88
2021/07/29 00:02:54;;;;;;;6.33;5.73;;;16.60;94.40;;;15.86;82.99;97809.19;4968520;28;20487;-88
2021/07/29 00:05:21;;;;;;;6.70;6.10;;;16.60;94.40;;;15.84;83.04;97806.72;4953620;28;20445;-88
2021/07/29 00:07:51;;;;;;;6.17;5.67;;;16.70;93.90;;;15.87;82.72;97799.94;4974564;28;20445;-88
2021/07/29 00:10:19;;;;;;;6.30;5.70;;;16.70;93.60;;;15.82;82.73;97791.72;4973105;28;20470;-88
2021/07/29 00:12:46;;;;;;;5.97;5.37;;;16.70;93.60;;;15.81;82.33;97801.78;4973120;28;20440;-88
2021/07/29 00:15:15;;;;;;;6.30;5.70;;;16.70;93.50;;;15.09;82.46;97700.19;4977304;28;21059;-91
2021/07/29 00:20:33;;;;;;;8.43;6.27;;;16.50;93.80;;;15.58;83.36;97781.91;4972808;28;20480;-89
2021/07/29 00:23:02;;;;;;;6.20;5.00;;;16.40;94.10;;;15.54;83.52;97785.41;4973833;28;21018;-88
2021/07/29 00:25:31;;;;;;;6.50;5.90;;;16.40;94.50;;;15.42;83.89;97777.38;4972904;28;20461;-89
2021/07/29 00:27:59;;;;;;;6.13;5.63;;;16.30;95.00;;;15.33;84.05;97762.53;4970958;28;20463;-90
2021/07/29 00:30:27;;;;;;;6.53;5.90;;;16.40;95.70;;;15.46;83.91;97783.09;4975326;28;20489;-89
2021/07/29 00:32:56;;;;;;;6.73;6.13;;;16.30;95.10;;;15.44;83.42;97791.53;4972904;28;20528;-88
2021/07/29 00:35:24;;;;;;;6.03;5.53;;;16.30;94.90;;;15.39;84.28;97784.13;4978303;28;20464;-89
2021/07/29 00:38:00;;;;;;;6.50;5.90;;;16.20;95.20;;;15.38;84.07;97787.09;4981963;28;20460;-93
2021/07/29 00:40:27;;;;;;;6.77;6.17;;;16.20;95.30;;;14.93;84.29;97727.19;4994352;28;20449;-89
2021/07/29 00:42:55;;;;;;;5.97;5.47;;;16.10;95.80;;;15.26;84.33;97790.78;4970056;28;20478;-89
2021/07/29 00:45:22;;;;;;;6.17;5.67;;;16.20;96.20;;;15.06;84.34;97763.28;4960815;28;20459;-89
2021/07/29 00:47:51;;;;;;;5.53;5.13;;;16.00;96.30;;;15.11;84.92;97766.88;4972145;28;20481;-89
2021/07/29 00:50:18;;;;;;;5.90;5.40;;;16.00;96.80;;;15.06;84.94;97768.72;4955186;28;20449;-89
2021/07/29 00:52:50;;;;;;;6.57;5.97;;;16.00;96.40;;;15.08;84.32;97775.56;4957023;28;20457;-89
2021/07/29 00:55:21;;;;;;;6.67;5.97;;;16.00;96.70;;;14.99;85.14;97780.59;4939087;28;20476;-88
2021/07/29 00:57:49;;;;;;;6.73;6.13;;;15.90;96.60;;;15.04;84.95;97787.19;4958112;28;20531;-89
2021/07/29 01:00:17;;;;;;;5.63;5.20;;;15.90;96.90;;;14.84;84.99;97751.28;4975193;28;20992;-88
2021/07/29 01:02:45;;;;;;;5.30;4.90;;;15.90;96.80;;;14.99;84.44;97775.16;4941833;28;20980;-89
2021/07/29 01:05:12;;;;;;;6.83;5.50;;;15.90;96.80;;;15.01;85.27;97783.06;4940350;28;20449;-89
2021/07/29 01:07:39;;;;;;;5.60;5.10;;;15.80;96.70;;;14.91;85.31;97767.41;4975987;28;20486;-89
2021/07/29 01:10:08;;;;;;;6.43;5.83;;;15.90;97.10;;;14.72;85.13;97748.66;4960648;28;20449;-89
2021/07/29 01:12:36;;;;;;;9.40;5.17;;;15.80;97.20;;;14.88;85.31;97778.81;4970927;28;20870;-89
2021/07/29 01:15:07;;;;;;;5.70;5.20;;;15.70;97.10;;;14.87;85.10;97771.72;4972786;28;20449;-89
2021/07/29 01:17:35;;;;;;;6.60;4.93;;;15.70;97.80;;;14.91;85.59;97789.19;4958523;28;20557;-89
2021/07/29 01:20:02;;;;;;;5.60;5.10;;;15.70;97.80;;;14.87;85.67;97788.03;4970709;28;20464;-88
2021/07/29 01:22:34;;;;;;;7.50;5.93;;;15.70;97.90;;;14.85;85.26;97784.75;4980371;28;20564;-92
2021/07/29 01:25:01;;;;;;;5.20;4.80;;;15.60;97.90;;;14.71;85.36;97767.94;4967552;28;20563;-89
2021/07/29 01:27:31;;;;;;;6.60;5.43;;;15.70;97.80;;;14.86;85.67;97791.81;4973465;28;20616;-88
2021/07/29 01:30:00;;;;;;;5.80;5.30;;;15.60;97.70;;;14.81;85.47;97783.59;4971843;28;20493;-89
2021/07/29 01:32:28;;;;;;;6.40;5.80;;;15.70;97.50;;;14.85;85.55;97791.00;4970814;28;20445;-88
2021/07/29 01:34:57;;;;;;;6.97;5.20;;;15.70;97.70;;;14.79;85.29;97797.44;4971153;28;20982;-88
2021/07/29 01:37:24;;;;;;;6.40;4.93;;;15.60;97.40;;;14.72;85.44;97781.28;4971319;28;20453;-89
2021/07/29 01:39:52;;;;;;;6.20;5.70;;;15.60;97.30;;;14.79;85.75;97797.44;4971563;28;20793;-88
2021/07/29 01:42:19;;;;;;;6.10;5.50;;;15.60;98.00;;;14.75;85.27;97784.59;4955068;28;20465;-88
2021/07/29 01:44:47;;;;;;;6.10;5.47;;;15.60;97.70;;;14.71;85.16;97789.69;4970752;28;21264;-89
2021/07/29 01:47:13;;;;;;;6.40;5.80;;;15.60;97.60;;;14.79;85.63;97796.63;4978569;28;20525;-89
2021/07/29 01:49:41;;;;;;;6.37;5.80;;;15.60;98.00;;;14.38;85.77;97731.50;4972072;28;20842;-88
2021/07/29 01:52:09;;;;;;;6.37;5.87;;;15.60;97.90;;;14.62;85.77;97770.22;4973754;28;20484;-89
2021/07/29 01:54:36;;;;;;;7.07;5.87;;;15.60;98.20;;;14.70;85.57;97786.13;4956437;28;20446;-88
2021/07/29 01:57:07;;;;;;;6.60;6.00;;;15.60;97.90;;;14.67;85.50;97797.50;4974927;28;20461;-88
2021/07/29 01:59:35;;;;;;;5.63;5.13;;;15.50;97.90;;;14.59;86.28;97784.31;4950834;28;20457;-88
2021/07/29 02:02:04;;;;;;;7.60;5.50;;;15.50;98.30;;;14.53;85.97;97783.41;4961109;28;20568;-89
2021/07/29 02:04:32;;;;;;;5.83;5.33;;;15.50;98.70;;;14.48;86.29;97779.78;4973125;28;20466;-88
2021/07/29 02:06:59;;;;;;;6.70;6.00;;;15.50;99.10;;;14.57;86.73;97794.63;4977773;28;20552;-88
2021/07/29 02:09:26;;;;;;;6.90;6.30;;;15.50;99.70;;;14.50;86.94;97773.03;4966225;28;20456;-90
2021/07/29 02:11:53;;;;;;;6.30;5.80;;;15.40;99.90;;;14.54;86.81;97773.38;4971292;28;20453;-88
2021/07/29 02:14:24;;;;;;;7.20;6.60;;;15.40;99.90;;;14.63;86.77;97788.16;4972183;28;20607;-89
2021/07/29 02:16:51;;;;;;;6.80;6.20;;;15.50;99.80;;;14.62;86.50;97788.44;4965793;28;20469;-88
2021/07/29 02:19:18;;;;;;;6.70;6.10;;;15.50;99.40;;;14.56;86.61;97799.25;4969178;28;21076;-89
2021/07/29 02:21:45;;;;;;;6.40;5.80;;;15.40;99.00;;;14.35;86.06;97757.31;4970804;28;20592;-88
2021/07/29 02:24:12;;;;;;;8.87;7.27;;;15.40;99.40;;;14.65;86.26;97806.97;4969219;28;20489;-88
2021/07/29 02:26:40;;;;;;;7.73;7.10;;;15.60;99.20;;;14.69;86.15;97808.13;4969418;28;20461;-88
2021/07/29 02:29:07;;;;;;;6.80;6.00;;;15.50;99.20;;;14.36;85.88;97752.69;4968883;28;20446;-88
2021/07/29 02:31:35;;;;;;;7.17;6.57;;;15.60;98.10;;;14.75;86.09;97811.78;4971179;28;20457;-89
2021/07/29 02:34:02;;;;;;;6.10;5.60;;;15.60;98.00;;;14.68;85.49;97790.16;4967380;28;20445;-89
2021/07/29 02:36:30;;;;;;;6.97;6.27;;;15.60;97.70;;;14.76;85.84;97808.81;4969915;28;21076;-88
2021/07/29 02:38:57;;;;;;;6.60;5.93;;;15.70;97.80;;;14.65;86.14;97796.09;4923660;28;20841;-88
2021/07/29 02:41:24;;;;;;;7.80;6.83;;;15.70;98.10;;;14.75;86.00;97806.34;4967321;28;21031;-88
2021/07/29 02:43:51;;;;;;;6.43;5.90;;;15.70;97.90;;;14.72;85.82;97819.34;4949348;28;20489;-89
2021/07/29 02:46:19;;;;;;;7.53;6.83;;;15.60;97.60;;;14.72;86.11;97813.91;4970905;28;20611;-89
2021/07/29 02:48:47;;;;;;;6.50;5.90;;;15.60;97.90;;;14.36;86.12;97766.25;4954371;28;20457;-88
2021/07/29 02:51:14;;;;;;;7.10;6.50;;;15.60;98.10;;;14.63;86.38;97818.06;4965854;28;20814;-90
2021/07/29 02:53:41;;;;;;;7.70;7.00;;;15.50;98.20;;;14.46;86.36;97799.06;4957629;28;20537;-88
2021/07/29 02:56:09;;;;;;;10.60;7.23;;;15.50;98.80;;;14.36;86.37;97798.88;4960615;28;20441;-89
2021/07/29 02:58:36;;;;;;;8.70;6.93;;;15.40;99.00;;;14.31;86.91;97799.59;4972282;28;20564;-89
2021/07/29 03:01:04;;;;;;;9.50;6.63;;;15.30;99.60;;;14.42;87.06;97817.75;4947766;28;20524;-88
2021/07/29 03:03:31;;;;;;;7.20;6.50;;;15.30;99.90;;;14.35;87.20;97814.38;4957139;28;20532;-89
2021/07/29 03:06:00;;;;;;;7.63;6.80;;;15.20;99.90;;;14.21;87.37;97797.53;4957755;28;20458;-89
2021/07/29 03:08:27;;;;;;;7.43;6.73;;;15.20;99.90;;;14.25;87.65;97808.75;4974091;28;20487;-87
2021/07/29 03:10:57;;;;;;;9.23;6.60;;;15.20;99.90;;;14.12;87.68;97793.59;4940885;28;20456;-89
2021/07/29 03:13:25;;;;;;;8.43;6.37;;;15.10;99.90;;;14.19;88.10;97801.59;4964172;28;20450;-88
2021/07/29 03:15:52;;;;;;;7.70;7.00;;;15.00;99.90;;;14.24;87.88;97812.53;4970201;28;20449;-87
2021/07/29 03:18:21;;;;;;;7.90;7.20;;;15.00;99.90;;;14.07;87.55;97780.72;4968714;28;20442;-89
2021/07/29 03:20:48;;;;;;;7.77;7.17;;;15.00;99.90;;;14.03;88.27;97785.81;4955702;28;20445;-89
2021/07/29 03:23:17;;;;;;;8.60;7.80;;;15.00;99.90;;;14.14;88.33;97818.63;4992793;28;20485;-90
2021/07/29 03:25:49;;;;;;;8.00;7.30;;;15.00;99.90;;;14.10;88.52;97818.28;4956824;28;20990;-89
2021/07/29 03:28:16;;;;;;;7.43;6.73;;;15.00;99.90;;;14.02;88.24;97811.34;4991436;28;20498;-90
2021/07/29 03:30:43;;;;;;;7.87;7.07;;;14.90;99.90;;;14.10;88.63;97823.69;4984204;28;20461;-91
2021/07/29 03:33:10;;;;;;;9.07;6.83;;;15.00;99.90;;;14.07;88.30;97818.75;4976902;28;20481;-90
2021/07/29 03:35:38;;;;;;;8.17;7.37;;;14.90;99.90;;;13.43;88.03;97717.38;4990594;28;20657;-88
2021/07/29 03:38:05;;;;;;;8.27;7.30;;;15.00;99.90;;;14.05;88.51;97815.47;4978892;28;20457;-88
2021/07/29 03:40:34;;;;;;;7.60;7.00;;;15.00;99.90;;;13.98;88.13;97820.22;4952447;28;20449;-89
2021/07/29 03:43:03;;;;;;;12.10;7.97;;;14.90;99.90;;;13.91;88.65;97800.53;4959739;28;20507;-89
2021/07/29 03:45:31;;;;;;;10.20;7.97;;;14.90;99.90;;;14.02;88.14;97815.94;4969794;28;20450;-90
2021/07/29 03:47:58;;;;;;;8.67;7.77;;;14.90;99.90;;;13.86;88.56;97793.09;4968659;28;20452;-89
2021/07/29 03:50:26;;;;;;;7.40;6.70;;;14.80;99.90;;;14.01;88.60;97819.72;4961062;28;20477;-88
2021/07/29 03:52:53;;;;;;;8.93;7.50;;;14.80;99.90;;;13.90;88.42;97812.47;4956852;28;20450;-88
2021/07/29 03:55:20;;;;;;;8.37;7.60;;;14.80;99.90;;;13.53;88.44;97743.88;4953156;28;20717;-88
2021/07/29 03:57:49;;;;;;;8.97;7.57;;;14.80;99.90;;;13.19;88.44;97694.88;4955373;28;20457;-88
2021/07/29 04:00:16;;;;;;;9.40;8.27;;;14.90;99.90;;;13.60;88.12;97744.56;4940937;28;20452;-88
2021/07/29 04:02:44;;;;;;;8.33;7.23;;;14.90;99.90;;;14.09;87.68;97811.19;4961862;28;20461;-88
2021/07/29 04:05:11;;;;;;;8.10;7.30;;;15.00;99.90;;;14.26;87.43;97813.13;4964379;28;20492;-88
2021/07/29 04:07:39;;;;;;;8.07;7.37;;;15.20;99.90;;;14.48;86.29;97809.66;4969159;28;20906;-88
2021/07/29 04:10:07;;;;;;;9.00;6.73;;;15.90;95.60;;;14.98;85.04;97817.03;4929961;28;20464;-88
2021/07/29 04:12:34;;;;;;;9.00;7.77;;;16.60;92.40;;;15.17;83.17;97786.03;4968886;28;20929;-88
2021/07/29 04:15:10;;;;;;;7.70;6.90;;;17.20;89.10;;;15.57;81.61;97801.22;4968121;28;20456;-88
2021/07/29 04:17:39;;;;;;;6.67;6.07;;;17.70;86.00;;;15.82;80.21;97797.16;4969170;28;20446;-87
2021/07/29 04:20:09;;;;;;;8.20;6.07;;;18.20;83.40;;;16.28;79.62;97813.19;4958307;28;20656;-88
2021/07/29 04:22:37;;;;;;;8.30;6.10;;;18.60;81.30;;;16.55;78.35;97798.72;4963575;28;20553;-88
2021/07/29 04:25:06;;;;;;;6.97;6.40;;;19.10;79.00;;;16.93;77.19;97810.47;4950382;28;20869;-88
2021/07/29 04:27:33;;;;;;;8.70;6.17;;;19.50;76.50;;;17.12;76.07;97812.81;4955334;28;20990;-88
2021/07/29 04:30:00;;;;;;;6.63;6.03;;;19.80;74.20;;;17.18;74.81;97800.81;4948095;28;20504;-90
2021/07/29 04:32:34;;;;;;;5.13;4.77;;;20.10;72.60;;;17.31;74.24;97815.09;4966649;28;21011;-88
2021/07/29 04:35:04;;;;;;;7.00;5.27;;;20.40;70.80;;;17.70;73.46;97815.56;4974726;28;20464;-89
2021/07/29 04:37:32;;;;;;;6.13;5.63;;;20.70;69.80;;;17.80;72.60;97809.31;4959547;28;20450;-88
2021/07/29 04:40:01;;;;;;;5.33;4.90;;;21.00;68.30;;;18.17;71.54;97798.53;4951968;28;20572;-88
2021/07/29 04:42:28;;;;;;;6.63;5.43;;;21.40;67.50;;;18.46;70.61;97804.28;4958021;28;20473;-90
2021/07/29 04:44:57;;;;;;;5.10;4.70;;;21.80;66.40;;;18.45;70.12;97764.34;4918758;28;20837;-88
2021/07/29 04:47:25;;;;;;;5.20;4.80;;;22.10;65.40;;;18.62;68.99;97755.06;4980612;28;20475;-88
2021/07/29 04:49:56;;;;;;;5.97;5.40;;;22.40;64.20;;;18.79;67.75;97754.78;4981382;28;20822;-89
2021/07/29 04:52:24;;;;;;;4.93;4.53;;;22.70;63.10;;;19.38;67.59;97815.47;4979884;28;20453;-88
2021/07/29 04:54:51;;;;;;;5.57;5.07;;;23.00;62.50;;;19.65;66.62;97803.31;4963235;28;20764;-89
2021/07/29 04:57:18;;;;;;;6.07;4.87;;;23.30;61.90;;;19.88;66.02;97817.47;4955795;29;20458;-88
2021/07/29 04:59:48;;;;;;;6.93;5.30;;;23.50;61.10;;;20.09;64.73;97818.22;4974573;28;20509;-88
2021/07/29 05:02:20;;;;;;;5.13;4.73;;;23.70;60.30;;;20.06;64.96;97808.63;4949588;28;20454;-88
2021/07/29 05:04:51;;;;;;;5.80;5.20;;;23.90;60.20;;;20.09;64.30;97804.50;4950457;29;20965;-89
2021/07/29 05:07:20;;;;;;;5.80;5.30;;;23.90;59.70;;;20.09;64.65;97816.31;4974779;28;20467;-89
2021/07/29 05:09:50;;;;;;;5.53;5.13;;;23.80;59.60;;;19.66;64.50;97777.56;4968998;28;20524;-88
2021/07/29 05:12:17;;;;;;;6.53;5.93;;;23.80;59.20;;;19.97;64.93;97818.56;4978976;28;20452;-88
2021/07/29 05:14:46;;;;;;;5.13;4.77;;;23.70;59.50;;;19.90;64.75;97809.78;4985262;28;20870;-88
2021/07/29 05:17:14;;;;;;;4.93;4.43;;;23.60;59.40;;;19.95;64.52;97813.34;4977108;28;20483;-88
2021/07/29 05:19:44;;;;;;;5.63;5.13;;;23.70;59.20;;;20.06;63.92;97802.34;4961751;28;20461;-89
2021/07/29 05:22:11;;;;;;;6.87;5.50;;;23.70;58.90;;;19.92;64.55;97802.13;4979267;28;20524;-89
2021/07/29 05:24:44;;;;;;;4.57;4.27;;;23.80;58.80;;;20.33;64.16;97818.34;4980686;28;20473;-88
2021/07/29 05:27:12;;;;;;;5.13;4.60;;;24.10;58.90;;;20.26;63.99;97817.84;4957910;28;20450;-88
2021/07/29 05:29:39;;;;;;;5.53;5.10;;;24.10;58.40;;;20.17;63.69;97820.38;4974739;28;20834;-88
2021/07/29 05:32:25;;;;;;;6.70;4.47;;;24.00;58.50;;;20.20;63.66;97813.47;4964525;28;20461;-88
2021/07/29 05:34:56;;;;;;;7.07;5.10;;;23.90;58.40;;;20.22;62.92;97808.53;4977039;28;20464;-89
2021/07/29 05:37:27;;;;;;;6.20;4.37;;;23.90;58.10;;;20.18;62.85;97821.19;4973812;28;20465;-89
2021/07/29 05:40:07;;;;;;;5.50;5.00;;;23.80;58.00;;;20.26;62.73;97819.75;4979833;28;21036;-89
2021/07/29 05:42:36;;;;;;;6.83;4.73;;;24.00;58.20;;;20.57;62.52;97817.63;4972450;28;20469;-87
2021/07/29 05:45:10;;;;;;;5.30;4.80;;;24.10;58.20;;;20.50;61.54;97785.03;4957485;28;20495;-88
2021/07/29 05:50:19;;;;;;;5.50;5.00;;;24.00;58.10;;;20.41;61.65;97821.59;4971677;28;20452;-88
2021/07/29 05:55:39;;;;;;;8.10;5.13;;;23.80;58.20;;;20.50;62.33;97806.16;4981494;28;20457;-90
2021/07/29 05:58:08;;;;;;;10.03;4.87;;;23.50;58.60;;;20.25;62.23;97777.81;4946890;28;20452;-90
2021/07/29 06:00:36;;;;;;;5.40;4.90;;;23.50;58.50;;;20.49;62.03;97796.28;4973688;28;20454;-90
2021/07/29 06:03:06;;;;;;;6.20;4.73;;;23.40;58.70;;;20.45;61.79;97825.41;4957876;28;20566;-89
2021/07/29 06:05:33;;;;;;;6.20;5.00;;;23.40;58.60;;;20.80;60.96;97826.22;4980108;28;21053;-89
2021/07/29 06:08:01;;;;;;;6.10;5.50;;;23.30;58.60;;;20.71;60.34;97812.28;4975436;28;20919;-89
2021/07/29 06:10:38;;;;;;;6.80;5.30;;;23.40;58.40;;;20.67;59.96;97812.03;4940450;28;20458;-89
2021/07/29 06:13:09;;;;;;;10.40;5.93;;;23.20;58.20;;;20.78;60.55;97828.44;4964116;28;20876;-88
2021/07/29 06:15:38;;;;;;;7.30;5.20;;;23.30;58.60;;;20.73;60.58;97825.75;4977663;28;20545;-88
2021/07/29 06:18:13;;;;;;;5.90;5.50;;;23.30;58.50;;;20.30;61.29;97834.53;4962090;28;20458;-88
2021/07/29 06:20:43;;;;;;;5.03;4.63;;;22.90;58.40;;;20.21;62.83;97826.91;4976628;28;20495;-87
2021/07/29 06:23:11;;;;;;;5.33;4.87;;;22.40;59.70;;;19.75;63.84;97811.47;4983415;28;20465;-89
2021/07/29 06:25:42;;;;;;;9.53;5.07;;;21.70;60.70;;;19.73;63.89;97835.63;4993497;28;20457;-90
2021/07/29 06:28:15;;;;;;;4.80;4.33;;;21.30;61.20;;;19.76;63.92;97821.34;4977723;28;20461;-88
2021/07/29 06:30:56;;;;;;;5.47;4.80;;;21.00;61.80;;;19.75;63.57;97830.66;4968541;28;20563;-88
2021/07/29 06:33:23;;;;;;;6.23;5.07;;;21.00;61.90;;;19.86;63.30;97830.63;4978111;28;20512;-88
2021/07/29 06:35:51;;;;;;;5.87;5.17;;;21.10;62.20;;;19.68;63.29;97802.75;4972683;28;20511;-85
2021/07/29 06:38:18;;;;;;;7.63;4.80;;;21.10;61.80;;;20.19;62.55;97825.56;4968201;29;20541;-89
2021/07/29 06:40:45;;;;;;;5.73;5.23;;;21.30;61.80;;;20.29;61.89;97820.00;4983049;28;20477;-87
2021/07/29 06:43:15;;;;;;;7.00;5.60;;;21.50;61.50;;;19.90;61.00;97766.75;4990757;28;20544;-87
2021/07/29 06:45:45;;;;;;;4.43;4.13;;;21.60;60.70;;;20.26;61.36;97827.97;4956545;28;20501;-89
2021/07/29 06:48:16;;;;;;;6.70;4.70;;;21.50;60.80;;;20.37;60.88;97833.13;4981306;28;20967;-89
2021/07/29 06:50:43;;;;;;;5.83;4.17;;;21.60;60.70;;;20.20;60.59;97840.91;4981742;28;20476;-88
2021/07/29 06:53:13;;;;;;;6.37;4.70;;;21.50;60.30;;;20.55;59.56;97830.00;4960461;29;20489;-84
2021/07/29 06:55:40;;;;;;;5.47;4.97;;;21.60;60.30;;;20.37;60.87;97833.13;4957138;28;20511;-87
2021/07/29 06:58:08;;;;;;;6.27;5.33;;;21.70;60.60;;;20.20;62.05;97829.94;4962990;28;20453;-85
2021/07/29 07:00:36;;;;;;;5.60;5.10;;;21.60;61.30;;;19.90;63.21;97824.31;4968240;28;20456;-86
2021/07/29 07:03:03;;;;;;;5.67;5.17;;;21.30;61.50;;;20.00;62.89;97842.66;4981320;28;20475;-84
2021/07/29 07:05:31;;;;;;;9.10;4.40;;;21.20;61.60;;;19.92;61.75;97841.31;4980033;28;20453;-85
2021/07/29 07:07:59;;;;;;;4.50;4.10;;;21.20;61.20;;;19.97;60.94;97837.75;4961562;29;20480;-85
2021/07/29 07:10:28;;;;;;;4.37;4.07;;;21.10;60.80;;;20.06;61.12;97841.53;4980942;28;20457;-85
2021/07/29 07:12:58;;;;;;;4.43;4.03;;;21.20;61.20;;;20.61;59.03;97826.09;4979348;28;20521;-86
2021/07/29 07:15:27;;;;;;;4.53;4.13;;;21.50;60.40;;;20.87;58.65;97842.41;4961200;28;20517;-85
2021/07/29 07:17:57;;;;;;;3.97;3.57;;;21.80;60.20;;;20.92;58.42;97823.94;4979930;28;20450;-87
2021/07/29 07:20:29;;;;;;;4.73;3.60;;;22.00;60.00;;;21.38;57.48;97813.63;4961877;29;20458;-85
2021/07/29 07:22:57;;;;;;;5.27;4.10;;;22.40;60.00;;;21.81;56.37;97832.09;4962921;28;20484;-83
2021/07/29 07:25:24;;;;;;;4.87;4.47;;;22.80;59.50;;;21.74;57.17;97826.16;4985775;28;20454;-87
2021/07/29 07:27:52;;;;;;;5.90;4.40;;;23.00;59.50;;;21.82;56.68;97828.25;4983502;28;20449;-84
2021/07/29 07:30:21;;;;;;;4.97;3.70;;;23.00;59.40;;;21.72;56.77;97818.19;4982299;28;20489;-84
2021/07/29 07:32:49;;;;;;;4.30;3.90;;;23.10;59.30;;;21.70;56.64;97817.69;4969524;28;20454;-84
2021/07/29 07:35:20;;;;;;;4.40;4.00;;;23.00;59.10;;;21.93;56.42;97828.97;4964863;28;20473;-84
2021/07/29 07:37:48;;;;;;;5.23;3.83;;;23.00;59.20;;;21.92;56.42;97797.06;4965167;28;20459;-85
2021/07/29 07:40:16;;;;;;;4.77;3.77;;;23.30;59.30;;;22.11;55.79;97807.25;4967123;28;20461;-83
2021/07/29 07:42:45;;;;;;;5.17;4.67;;;23.40;59.00;;;22.25;55.65;97801.81;4976632;28;20450;-85
2021/07/29 07:45:13;;;;;;;4.53;3.73;;;23.60;59.00;;;22.63;55.56;97832.94;4972372;28;20473;-84
2021/07/29 07:47:42;;;;;;;4.20;3.80;;;23.70;59.10;;;22.98;54.59;97815.31;4972796;28;21007;-85
2021/07/29 07:50:10;;;;;;;3.90;3.60;;;24.00;59.00;;;22.40;54.95;97822.81;4963253;28;20472;-84
2021/07/29 07:52:39;;;;;;;3.40;3.03;;;23.60;58.50;;;21.94;55.69;97825.91;4978018;28;21007;-86
2021/07/29 07:55:08;;;;;;;4.10;3.07;;;23.20;58.50;;;22.32;55.28;97819.59;4959798;28;20442;-84
2021/07/29 07:57:36;;;;;;;3.87;3.57;;;23.30;58.70;;;22.59;54.51;97820.06;4955688;28;20453;-85
2021/07/29 08:00:05;;;;;;;3.60;3.30;;;23.70;58.90;;;22.42;54.00;97796.59;4978989;28;20449;-85
2021/07/29 08:02:34;;;;;;;3.93;3.13;;;23.60;58.00;;;22.96;53.45;97806.50;4979885;28;20433;-85
2021/07/29 08:05:04;;;;;;;3.73;3.43;;;23.90;58.20;;;22.91;53.67;97805.50;4941513;28;20890;-85
2021/07/29 08:07:37;;;;;;;3.50;3.30;;;24.00;58.00;;;22.80;53.48;97806.78;4972604;28;20457;-85
2021/07/29 08:10:11;;;;;;;3.53;3.23;;;23.90;57.80;;;22.02;54.56;97810.66;4975324;28;20445;-86
2021/07/29 08:12:38;;;;;;;3.50;3.20;;;23.50;57.40;;;21.90;54.93;97818.53;4960635;29;20478;-85
2021/07/29 08:15:07;;;;;;;3.60;3.40;;;23.10;57.70;;;21.57;55.66;97788.13;4967721;28;20512;-85
2021/07/29 08:17:38;;;;;;;3.80;3.13;;;22.90;58.10;;;21.82;55.47;97814.50;4980539;28;20457;-86
2021/07/29 08:20:09;;;;;;;3.57;3.33;;;22.90;58.10;;;22.07;54.72;97807.03;4969397;28;20477;-85
2021/07/29 08:22:36;;;;;;;3.50;3.20;;;23.10;58.00;;;22.16;54.76;97804.44;4958174;28;20454;-85
2021/07/29 08:25:09;;;;;;;3.73;3.43;;;23.10;58.00;;;21.93;55.30;97790.47;4968107;28;20744;-84
2021/07/29 08:27:36;;;;;;;3.47;3.20;;;23.10;58.00;;;22.30;54.71;97805.31;4971357;28;20468;-85
2021/07/29 08:30:04;;;;;;;4.40;3.30;;;23.30;58.10;;;22.37;55.14;97785.69;4984241;28;20479;-86
2021/07/29 08:32:31;;;;;;;4.43;3.20;;;23.60;58.70;;;22.15;54.56;97794.53;4968418;28;20449;-87
2021/07/29 08:34:59;;;;;;;3.70;3.40;;;23.40;57.40;;;21.96;54.72;97762.34;4988686;28;20448;-83
2021/07/29 08:37:26;;;;;;;3.50;3.20;;;23.30;58.00;;;22.50;53.96;97800.66;4991581;28;20450;-86
2021/07/29 08:39:56;;;;;;;3.20;3.00;;;23.40;58.00;;;21.98;53.34;97782.13;4995761;28;20458;-85
2021/07/29 08:42:32;;;;;;;5.00;3.20;;;23.10;57.00;;;22.25;52.96;97780.66;4987333;28;20460;-84
2021/07/29 08:45:00;;;;;;;3.63;3.23;;;23.20;57.10;;;21.86;52.66;97770.75;4983649;28;20558;-83
2021/07/29 08:47:33;;;;;;;3.77;3.47;;;23.00;56.40;;;22.13;53.54;97783.81;4989238;28;20539;-85
2021/07/29 08:50:05;;;;;;;3.47;3.17;;;23.00;57.60;;;22.18;52.84;97777.44;4987014;28;20458;-85
2021/07/29 08:52:33;;;;;;;4.93;3.60;;;23.00;57.00;;;22.13;52.12;97737.06;4981133;28;20976;-86
2021/07/29 08:55:03;;;;;;;6.13;3.20;;;23.30;56.80;;;22.27;52.72;97750.91;4968773;28;20456;-83
2021/07/29 08:57:35;;;;;;;3.50;3.20;;;23.20;57.10;;;22.56;53.16;97769.19;4982815;28;20456;-82
2021/07/29 09:00:09;;;;;;;3.40;3.10;;;23.30;57.30;;;22.59;52.27;97773.25;4975333;28;20446;-82
2021/07/29 09:02:37;;;;;;;4.40;3.20;;;23.50;56.80;;;23.10;51.10;97774.28;4981055;28;20453;-80
2021/07/29 09:05:24;;;;;;;5.53;3.70;;;23.90;56.90;;;23.20;49.92;97748.47;4978764;28;20503;-82
2021/07/29 09:08:06;;;;;;;3.87;3.57;;;24.10;56.00;;;22.99;48.43;97778.38;4986149;28;20438;-84
2021/07/29 09:10:39;;;;;;;4.20;3.80;;;24.00;54.70;;;22.33;49.77;97741.44;4977899;28;20528;-80
2021/07/29 09:13:11;;;;;;;4.10;3.70;;;23.60;55.20;;;22.18;48.71;97769.19;4985095;28;20473;-84
2021/07/29 09:15:40;;;;;;;4.30;3.90;;;23.20;54.20;;;22.33;49.22;97768.16;4961560;28;20974;-84
2021/07/29 09:18:08;;;;;;;3.30;3.10;;;23.10;54.90;;;22.28;49.78;97762.72;4985856;28;20504;-86
2021/07/29 09:20:36;;;;;;;4.40;4.00;;;23.10;54.90;;;22.74;49.46;97761.19;4957723;28;20949;-79
2021/07/29 09:23:18;;;;;;;3.70;3.40;;;23.40;55.50;;;22.76;49.23;97759.78;4975260;28;20456;-79
2021/07/29 09:25:46;;;;;;;4.17;3.87;;;23.70;55.20;;;23.05;48.08;97763.38;4969318;28;20565;-79
2021/07/29 09:28:32;;;;;;;4.87;3.33;;;23.70;54.40;;;23.49;45.82;97759.25;4962192;28;20996;-78
2021/07/29 09:31:15;;;;;;;5.30;4.50;;;24.20;53.80;;;23.20;45.68;97765.84;4974983;28;20822;-80
2021/07/29 09:33:56;;;;;;;4.43;3.63;;;24.20;52.90;;;23.14;46.94;97771.75;4977560;28;20540;-80
2021/07/29 09:36:23;;;;;;;3.77;3.47;;;24.10;53.40;;;23.24;46.80;97768.81;4977948;28;20520;-83
2021/07/29 09:39:11;;;;;;;4.53;3.97;;;24.20;53.70;;;23.56;45.98;97771.78;4978663;28;20465;-87
2021/07/29 09:41:38;;;;;;;5.93;4.20;;;24.30;53.30;;;23.92;44.84;97784.84;4973748;28;21010;-79
2021/07/29 09:44:06;;;;;;;4.10;3.70;;;24.70;53.10;;;23.59;45.66;97766.50;4974200;28;20225;-78
2021/07/29 09:46:34;;;;;;;3.70;3.40;;;24.50;53.00;;;23.34;45.16;97752.09;4980334;28;20449;-83
2021/07/29 09:49:02;;;;;;;4.03;3.70;;;24.30;52.40;;;23.65;44.09;97761.69;4974039;28;20469;-83
2021/07/29 09:51:34;;;;;;;3.83;3.53;;;24.40;52.20;;;23.23;43.30;97758.91;4975322;28;20460;-84
2021/07/29 09:54:07;;;;;;;4.10;3.30;;;24.10;51.20;;;23.13;43.61;97772.88;4962805;28;20449;-84
2021/07/29 09:56:34;;;;;;;4.20;3.80;;;23.90;51.20;;;23.23;43.49;97763.59;4978346;28;20493;-82
2021/07/29 09:59:03;;;;;;;4.63;4.17;;;24.10;51.10;;;23.37;43.46;97764.47;4974123;28;20546;-84
2021/07/29 10:01:32;;;;;;;4.60;4.10;;;24.10;51.30;;;23.53;44.20;97753.94;4978873;28;20869;-83
2021/07/29 10:04:02;;;;;;;3.70;3.40;;;24.30;51.90;;;23.33;43.90;97757.94;4963825;28;20453;-82
2021/07/29 10:06:33;;;;;;;4.70;4.30;;;24.20;51.20;;;23.45;44.20;97763.75;4981619;28;20540;-84
2021/07/29 10:09:06;;;;;;;4.10;3.70;;;24.30;51.90;;;23.14;44.72;97766.25;4968365;28;20486;-83
2021/07/29 10:11:36;;;;;;;4.20;3.67;;;24.00;51.70;;;23.04;44.77;97761.75;4965271;28;20553;-82
2021/07/29 10:14:04;;;;;;;4.43;3.60;;;24.00;51.80;;;23.10;45.31;97759.72;4980674;28;20460;-81
2021/07/29 10:16:48;;;;;;;4.10;3.70;;;23.90;52.00;;;23.07;45.69;97769.41;4981054;28;21027;-81
2021/07/29 10:19:16;;;;;;;4.90;3.77;;;23.80;52.40;;;23.57;45.53;97767.91;4980087;28;20989;-81
2021/07/29 10:21:44;;;;;;;3.90;3.43;;;24.20;52.70;;;23.17;45.73;97760.13;4980903;28;20564;-82
2021/07/29 10:24:14;;;;;;;4.40;4.00;;;24.00;52.20;;;22.47;46.76;97759.94;4981555;28;20471;-81
2021/07/29 10:27:10;;;;;;;4.00;3.70;;;23.50;52.40;;;22.39;46.92;97744.94;4982706;28;20454;-82
2021/07/29 10:29:37;;;;;;;4.27;3.87;;;23.40;52.80;;;22.39;47.01;97744.13;4979936;28;20597;-81
2021/07/29 10:32:10;;;;;;;3.93;3.63;;;23.30;52.70;;;22.63;46.28;97757.78;4966043;28;20513;-81
2021/07/29 10:34:39;;;;;;;4.60;3.80;;;23.50;52.60;;;22.83;46.17;97762.13;4959080;28;20442;-82
2021/07/29 10:37:08;;;;;;;5.80;3.97;;;23.50;52.50;;;22.56;46.68;97763.69;4950449;28;20457;-82